sensor_id;sensor_type;location;lat;lon;timestamp;temperature;humidity
3005;DHT22;1512;51.486;6.610;2022-12-16T00:02:10;-4.70;99.90
3005;DHT22;1512;51.486;6.610;2022-12-16T00:06:20;-4.70;99.90
3005;DHT22;1512;51.486;6.610;2022-12-16T00:10:29;-4.80;99.90
3005;DHT22;1512;51.486;6.610;2022-12-16T00:14:39;-4.80;99.90
3005;DHT22;1512;51.486;6.610;2022-12-16T00:18:51;-4.80;99.90
3005;DHT22;1512;51.486;6.610;2022-12-16T00:23:21;-4.80;99.90
3005;DHT22;1512;51.486;6.610;2022-12-16T00:27:29;-4.80;99.90
3005;DHT22;1512;51.486;6.610;2022-12-16T00:31:38;-4.80;99.90
3005;DHT22;1512;51.486;6.610;2022-12-16T00:35:47;-4.90;99.90
3005;DHT22;1512;51.486;6.610;2022-12-16T00:39:57;-4.90;99.90
3005;DHT22;1512;51.486;6.610;2022-12-16T00:44:06;-4.90;99.90
3005;DHT22;1512;51.486;6.610;2022-12-16T00:48:34;-5.00;99.90
3005;DHT22;1512;51.486;6.610;2022-12-16T00:52:43;-5.00;99.90
3005;DHT22;1512;51.486;6.610;2022-12-16T00:56:52;-5.00;99.90
3005;DHT22;1512;51.486;6.610;2022-12-16T01:01:03;-4.90;99.90
3005;DHT22;1512;51.486;6.610;2022-12-16T01:05:14;-4.90;99.90
3005;DHT22;1512;51.486;6.610;2022-12-16T01:09:25;-4.90;99.90
3005;DHT22;1512;51.486;6.610;2022-12-16T01:13:33;-4.90;99.90
3005;DHT22;1512;51.486;6.610;2022-12-16T01:17:44;-4.90;99.90
3005;DHT22;1512;51.486;6.610;2022-12-16T01:21:52;-4.90;99.90
3005;DHT22;1512;51.486;6.610;2022-12-16T01:26:01;-4.90;99.90
3005;DHT22;1512;51.486;6.610;2022-12-16T01:30:10;-4.80;99.90
3005;DHT22;1512;51.486;6.610;2022-12-16T01:34:19;-4.80;99.90
3005;DHT22;1512;51.486;6.610;2022-12-16T01:38:28;-4.80;99.90
3005;DHT22;1512;51.486;6.610;2022-12-16T01:42:36;-4.70;99.90
3005;DHT22;1512;51.486;6.610;2022-12-16T01:51:09;-4.80;99.90
3005;DHT22;1512;51.486;6.610;2022-12-16T01:55:24;-4.80;99.90
3005;DHT22;1512;51.486;6.610;2022-12-16T01:59:30;-4.80;99.90
3005;DHT22;1512;51.486;6.610;2022-12-16T02:03:41;-4.80;99.90
3005;DHT22;1512;51.486;6.610;2022-12-16T02:16:53;-4.70;99.90
3005;DHT22;1512;51.486;6.610;2022-12-16T02:35:09;-4.70;99.90
3005;DHT22;1512;51.486;6.610;2022-12-16T02:39:37;-4.80;99.90
3005;DHT22;1512;51.486;6.610;2022-12-16T02:43:57;-4.80;99.90
3005;DHT22;1512;51.486;6.610;2022-12-16T02:48:06;-4.70;99.90
3005;DHT22;1512;51.486;6.610;2022-12-16T02:52:17;-4.70;99.90
3005;DHT22;1512;51.486;6.610;2022-12-16T03:01:19;-4.60;99.90
3005;DHT22;1512;51.486;6.610;2022-12-16T03:05:47;-4.60;99.90
3005;DHT22;1512;51.486;6.610;2022-12-16T03:09:55;-4.50;99.90
3005;DHT22;1512;51.486;6.610;2022-12-16T03:14:26;-4.40;99.90
3005;DHT22;1512;51.486;6.610;2022-12-16T03:18:37;-4.40;99.90
3005;DHT22;1512;51.486;6.610;2022-12-16T03:22:48;-4.40;99.90
3005;DHT22;1512;51.486;6.610;2022-12-16T03:27:18;-4.30;99.90
3005;DHT22;1512;51.486;6.610;2022-12-16T03:31:39;-4.30;99.90
3005;DHT22;1512;51.486;6.610;2022-12-16T03:36:00;-4.30;99.90
3005;DHT22;1512;51.486;6.610;2022-12-16T03:40:19;-4.30;99.90
3005;DHT22;1512;51.486;6.610;2022-12-16T03:44:28;-4.20;99.90
3005;DHT22;1512;51.486;6.610;2022-12-16T03:48:44;-4.20;99.90
3005;DHT22;1512;51.486;6.610;2022-12-16T03:52:49;-4.10;99.90
3005;DHT22;1512;51.486;6.610;2022-12-16T03:56:58;-4.00;99.90
3005;DHT22;1512;51.486;6.610;2022-12-16T04:01:27;-4.00;99.90
3005;DHT22;1512;51.486;6.610;2022-12-16T04:05:36;-4.00;99.90
3005;DHT22;1512;51.486;6.610;2022-12-16T04:09:44;-4.00;99.90
3005;DHT22;1512;51.486;6.610;2022-12-16T04:13:53;-3.90;99.90
3005;DHT22;1512;51.486;6.610;2022-12-16T04:18:20;-3.90;99.90
3005;DHT22;1512;51.486;6.610;2022-12-16T04:22:46;-4.00;99.90
3005;DHT22;1512;51.486;6.610;2022-12-16T04:27:13;-4.00;99.90
3005;DHT22;1512;51.486;6.610;2022-12-16T04:31:31;-4.00;99.90
3005;DHT22;1512;51.486;6.610;2022-12-16T04:35:40;-4.10;99.90
3005;DHT22;1512;51.486;6.610;2022-12-16T04:40:07;-4.10;99.90
3005;DHT22;1512;51.486;6.610;2022-12-16T04:44:34;-4.10;99.90
3005;DHT22;1512;51.486;6.610;2022-12-16T04:49:20;-4.10;99.90
3005;DHT22;1512;51.486;6.610;2022-12-16T04:53:46;-4.10;99.90
3005;DHT22;1512;51.486;6.610;2022-12-16T04:58:13;-4.10;99.90
3005;DHT22;1512;51.486;6.610;2022-12-16T05:02:40;-4.20;99.90
3005;DHT22;1512;51.486;6.610;2022-12-16T05:07:11;-4.30;99.90
3005;DHT22;1512;51.486;6.610;2022-12-16T05:11:39;-4.40;99.90
3005;DHT22;1512;51.486;6.610;2022-12-16T05:16:05;-4.40;99.90
3005;DHT22;1512;51.486;6.610;2022-12-16T05:20:32;-4.40;99.90
3005;DHT22;1512;51.486;6.610;2022-12-16T05:25:18;-4.40;99.90
3005;DHT22;1512;51.486;6.610;2022-12-16T05:29:44;-4.30;99.90
3005;DHT22;1512;51.486;6.610;2022-12-16T05:34:11;-4.30;99.90
3005;DHT22;1512;51.486;6.610;2022-12-16T05:38:38;-4.50;99.90
3005;DHT22;1512;51.486;6.610;2022-12-16T05:43:05;-4.50;99.90
3005;DHT22;1512;51.486;6.610;2022-12-16T05:47:31;-4.60;99.90
3005;DHT22;1512;51.486;6.610;2022-12-16T05:51:57;-4.60;99.90
3005;DHT22;1512;51.486;6.610;2022-12-16T05:56:43;-4.50;99.90
3005;DHT22;1512;51.486;6.610;2022-12-16T06:01:11;-4.50;99.90
3005;DHT22;1512;51.486;6.610;2022-12-16T06:05:38;-4.60;99.90
3005;DHT22;1512;51.486;6.610;2022-12-16T06:10:05;-4.60;99.90
3005;DHT22;1512;51.486;6.610;2022-12-16T06:14:31;-4.60;99.90
3005;DHT22;1512;51.486;6.610;2022-12-16T06:18:58;-4.60;99.90
3005;DHT22;1512;51.486;6.610;2022-12-16T06:23:26;-4.50;99.90
3005;DHT22;1512;51.486;6.610;2022-12-16T06:27:53;-4.40;99.90
3005;DHT22;1512;51.486;6.610;2022-12-16T06:32:19;-4.30;99.90
3005;DHT22;1512;51.486;6.610;2022-12-16T06:36:51;-4.30;99.90
3005;DHT22;1512;51.486;6.610;2022-12-16T06:41:37;-4.20;99.90
3005;DHT22;1512;51.486;6.610;2022-12-16T06:46:04;-4.10;99.90
3005;DHT22;1512;51.486;6.610;2022-12-16T06:50:30;-4.10;99.90
3005;DHT22;1512;51.486;6.610;2022-12-16T06:54:58;-4.00;99.90
3005;DHT22;1512;51.486;6.610;2022-12-16T06:59:25;-4.00;99.90
3005;DHT22;1512;51.486;6.610;2022-12-16T07:03:52;-4.00;99.90
3005;DHT22;1512;51.486;6.610;2022-12-16T07:08:19;-3.90;99.90
3005;DHT22;1512;51.486;6.610;2022-12-16T07:12:45;-3.80;99.90
3005;DHT22;1512;51.486;6.610;2022-12-16T07:17:01;-3.70;99.90
3005;DHT22;1512;51.486;6.610;2022-12-16T07:21:28;-3.60;99.90
3005;DHT22;1512;51.486;6.610;2022-12-16T07:26:14;-3.60;99.90
3005;DHT22;1512;51.486;6.610;2022-12-16T07:35:09;-3.50;99.90
3005;DHT22;1512;51.486;6.610;2022-12-16T07:39:35;-3.40;99.90
3005;DHT22;1512;51.486;6.610;2022-12-16T07:44:05;-3.40;99.90
3005;DHT22;1512;51.486;6.610;2022-12-16T07:48:32;-3.30;99.90
3005;DHT22;1512;51.486;6.610;2022-12-16T07:53:00;-3.30;99.90
3005;DHT22;1512;51.486;6.610;2022-12-16T07:57:26;-3.30;99.90
3005;DHT22;1512;51.486;6.610;2022-12-16T08:01:53;-3.20;99.90
3005;DHT22;1512;51.486;6.610;2022-12-16T08:06:39;-3.20;99.90
3005;DHT22;1512;51.486;6.610;2022-12-16T08:11:05;-3.10;99.90
3005;DHT22;1512;51.486;6.610;2022-12-16T08:15:32;-3.10;99.90
3005;DHT22;1512;51.486;6.610;2022-12-16T08:19:59;-3.10;99.90
3005;DHT22;1512;51.486;6.610;2022-12-16T08:24:26;-3.00;99.90
3005;DHT22;1512;51.486;6.610;2022-12-16T08:29:13;-3.00;99.90
3005;DHT22;1512;51.486;6.610;2022-12-16T08:33:42;-3.00;99.90
3005;DHT22;1512;51.486;6.610;2022-12-16T08:38:08;-2.90;99.90
3005;DHT22;1512;51.486;6.610;2022-12-16T08:42:36;-2.90;99.90
3005;DHT22;1512;51.486;6.610;2022-12-16T08:47:09;-2.90;99.90
3005;DHT22;1512;51.486;6.610;2022-12-16T08:51:41;-2.80;99.90
3005;DHT22;1512;51.486;6.610;2022-12-16T08:56:07;-2.80;99.90
3005;DHT22;1512;51.486;6.610;2022-12-16T09:00:34;-2.80;99.90
3005;DHT22;1512;51.486;6.610;2022-12-16T09:05:06;-2.80;99.90
3005;DHT22;1512;51.486;6.610;2022-12-16T09:09:33;-2.70;99.90
3005;DHT22;1512;51.486;6.610;2022-12-16T09:13:59;-2.70;99.90
3005;DHT22;1512;51.486;6.610;2022-12-16T09:18:31;-2.70;99.90
3005;DHT22;1512;51.486;6.610;2022-12-16T09:23:02;-2.70;99.90
3005;DHT22;1512;51.486;6.610;2022-12-16T09:27:28;-2.70;99.90
3005;DHT22;1512;51.486;6.610;2022-12-16T09:31:55;-2.70;99.90
3005;DHT22;1512;51.486;6.610;2022-12-16T09:36:22;-2.70;99.90
3005;DHT22;1512;51.486;6.610;2022-12-16T09:40:48;-2.70;99.90
3005;DHT22;1512;51.486;6.610;2022-12-16T09:45:22;-2.60;99.90
3005;DHT22;1512;51.486;6.610;2022-12-16T09:49:50;-2.60;99.90
3005;DHT22;1512;51.486;6.610;2022-12-16T09:54:19;-2.60;99.90
3005;DHT22;1512;51.486;6.610;2022-12-16T09:59:02;-2.60;99.90
3005;DHT22;1512;51.486;6.610;2022-12-16T10:03:38;-2.50;99.90
3005;DHT22;1512;51.486;6.610;2022-12-16T10:08:18;-2.50;99.90
3005;DHT22;1512;51.486;6.610;2022-12-16T10:17:25;-2.40;99.90
3005;DHT22;1512;51.486;6.610;2022-12-16T10:22:05;-2.40;99.90
3005;DHT22;1512;51.486;6.610;2022-12-16T10:31:15;-2.30;99.90
3005;DHT22;1512;51.486;6.610;2022-12-16T10:36:02;-2.30;99.90
3005;DHT22;1512;51.486;6.610;2022-12-16T10:40:31;-2.20;99.90
3005;DHT22;1512;51.486;6.610;2022-12-16T10:45:02;-2.20;99.90
3005;DHT22;1512;51.486;6.610;2022-12-16T10:49:48;-2.10;99.90
3005;DHT22;1512;51.486;6.610;2022-12-16T10:59:08;-2.00;99.90
3005;DHT22;1512;51.486;6.610;2022-12-16T11:03:24;-2.00;99.90
3005;DHT22;1512;51.486;6.610;2022-12-16T11:07:52;-1.90;99.90
3005;DHT22;1512;51.486;6.610;2022-12-16T11:12:24;-1.90;99.90
3005;DHT22;1512;51.486;6.610;2022-12-16T11:22:04;-1.90;99.90
3005;DHT22;1512;51.486;6.610;2022-12-16T11:26:26;-1.90;99.90
3005;DHT22;1512;51.486;6.610;2022-12-16T11:30:51;-1.90;99.90
3005;DHT22;1512;51.486;6.610;2022-12-16T11:35:45;-1.80;99.90
3005;DHT22;1512;51.486;6.610;2022-12-16T11:40:14;-1.80;99.90
3005;DHT22;1512;51.486;6.610;2022-12-16T11:44:46;-1.70;99.90
3005;DHT22;1512;51.486;6.610;2022-12-16T11:49:34;-1.70;99.90
3005;DHT22;1512;51.486;6.610;2022-12-16T11:54:21;-1.70;99.90
3005;DHT22;1512;51.486;6.610;2022-12-16T11:58:49;-1.70;99.90
3005;DHT22;1512;51.486;6.610;2022-12-16T12:03:23;-1.60;99.90
3005;DHT22;1512;51.486;6.610;2022-12-16T12:08:01;-1.60;99.90
3005;DHT22;1512;51.486;6.610;2022-12-16T12:12:38;-1.60;99.90
3005;DHT22;1512;51.486;6.610;2022-12-16T12:26:13;-1.50;99.90
3005;DHT22;1512;51.486;6.610;2022-12-16T12:30:44;-1.40;99.90
3005;DHT22;1512;51.486;6.610;2022-12-16T12:35:24;-1.40;99.90
3005;DHT22;1512;51.486;6.610;2022-12-16T12:39:58;-1.40;99.90
3005;DHT22;1512;51.486;6.610;2022-12-16T12:44:23;-1.30;99.90
3005;DHT22;1512;51.486;6.610;2022-12-16T12:49:14;-1.30;99.90
3005;DHT22;1512;51.486;6.610;2022-12-16T12:53:49;-1.30;99.90
3005;DHT22;1512;51.486;6.610;2022-12-16T12:58:33;-1.30;99.90
3005;DHT22;1512;51.486;6.610;2022-12-16T13:03:36;-1.20;99.90
3005;DHT22;1512;51.486;6.610;2022-12-16T13:13:20;-1.10;99.90
3005;DHT22;1512;51.486;6.610;2022-12-16T13:22:34;-1.00;99.90
3005;DHT22;1512;51.486;6.610;2022-12-16T13:27:01;-1.00;99.90
3005;DHT22;1512;51.486;6.610;2022-12-16T13:31:29;-0.90;99.90
3005;DHT22;1512;51.486;6.610;2022-12-16T13:35:58;-0.90;99.90
3005;DHT22;1512;51.486;6.610;2022-12-16T13:40:25;-0.90;99.90
3005;DHT22;1512;51.486;6.610;2022-12-16T13:44:53;-0.90;99.90
3005;DHT22;1512;51.486;6.610;2022-12-16T13:54:05;-0.90;99.90
3005;DHT22;1512;51.486;6.610;2022-12-16T13:58:46;-0.90;99.90
3005;DHT22;1512;51.486;6.610;2022-12-16T14:03:23;-0.90;99.90
3005;DHT22;1512;51.486;6.610;2022-12-16T14:07:41;-0.90;99.90
3005;DHT22;1512;51.486;6.610;2022-12-16T14:12:22;-0.90;99.90
3005;DHT22;1512;51.486;6.610;2022-12-16T14:21:40;-0.90;99.90
3005;DHT22;1512;51.486;6.610;2022-12-16T14:26:26;-0.90;99.90
3005;DHT22;1512;51.486;6.610;2022-12-16T14:31:04;-0.90;99.90
3005;DHT22;1512;51.486;6.610;2022-12-16T14:35:31;-0.90;99.90
3005;DHT22;1512;51.486;6.610;2022-12-16T14:39:57;-0.90;99.90
3005;DHT22;1512;51.486;6.610;2022-12-16T14:44:24;-0.90;99.90
3005;DHT22;1512;51.486;6.610;2022-12-16T14:49:22;-0.90;99.90
3005;DHT22;1512;51.486;6.610;2022-12-16T14:53:49;-0.80;99.90
3005;DHT22;1512;51.486;6.610;2022-12-16T14:58:18;-0.80;99.90
3005;DHT22;1512;51.486;6.610;2022-12-16T15:02:47;-0.80;99.90
3005;DHT22;1512;51.486;6.610;2022-12-16T15:07:15;-0.80;99.90
3005;DHT22;1512;51.486;6.610;2022-12-16T15:11:42;-0.80;99.90
3005;DHT22;1512;51.486;6.610;2022-12-16T15:16:30;-0.80;99.90
3005;DHT22;1512;51.486;6.610;2022-12-16T15:20:57;-0.80;99.90
3005;DHT22;1512;51.486;6.610;2022-12-16T15:25:24;-0.80;99.90
3005;DHT22;1512;51.486;6.610;2022-12-16T15:29:51;-0.80;99.90
3005;DHT22;1512;51.486;6.610;2022-12-16T15:34:30;-0.80;99.90
3005;DHT22;1512;51.486;6.610;2022-12-16T15:38:54;-0.80;99.90
3005;DHT22;1512;51.486;6.610;2022-12-16T15:43:30;-0.80;99.90
3005;DHT22;1512;51.486;6.610;2022-12-16T15:47:53;-0.80;99.90
3005;DHT22;1512;51.486;6.610;2022-12-16T15:52:34;-0.80;99.90
3005;DHT22;1512;51.486;6.610;2022-12-16T15:57:01;-0.80;99.90
3005;DHT22;1512;51.486;6.610;2022-12-16T16:01:28;-0.80;99.90
3005;DHT22;1512;51.486;6.610;2022-12-16T16:06:22;-0.80;99.90
3005;DHT22;1512;51.486;6.610;2022-12-16T16:10:50;-0.80;99.90
3005;DHT22;1512;51.486;6.610;2022-12-16T16:15:35;-0.70;99.90
3005;DHT22;1512;51.486;6.610;2022-12-16T16:20:02;-0.70;99.90
3005;DHT22;1512;51.486;6.610;2022-12-16T16:24:33;-0.70;99.90
3005;DHT22;1512;51.486;6.610;2022-12-16T16:28:58;-0.70;99.90
3005;DHT22;1512;51.486;6.610;2022-12-16T16:38:03;-0.60;99.90
3005;DHT22;1512;51.486;6.610;2022-12-16T16:42:18;-0.60;99.90
3005;DHT22;1512;51.486;6.610;2022-12-16T16:46:45;-0.60;99.90
3005;DHT22;1512;51.486;6.610;2022-12-16T16:51:12;-0.60;99.90
3005;DHT22;1512;51.486;6.610;2022-12-16T16:55:39;-0.60;99.90
3005;DHT22;1512;51.486;6.610;2022-12-16T17:04:53;-0.60;99.90
3005;DHT22;1512;51.486;6.610;2022-12-16T17:09:20;-0.60;99.90
3005;DHT22;1512;51.486;6.610;2022-12-16T17:13:46;-0.60;99.90
3005;DHT22;1512;51.486;6.610;2022-12-16T17:18:12;-0.60;99.90
3005;DHT22;1512;51.486;6.610;2022-12-16T17:22:38;-0.60;99.90
3005;DHT22;1512;51.486;6.610;2022-12-16T17:27:16;-0.50;99.90
3005;DHT22;1512;51.486;6.610;2022-12-16T17:31:43;-0.50;99.90
3005;DHT22;1512;51.486;6.610;2022-12-16T17:36:11;-0.50;99.90
3005;DHT22;1512;51.486;6.610;2022-12-16T17:40:38;-0.50;99.90
3005;DHT22;1512;51.486;6.610;2022-12-16T17:45:05;-0.50;99.90
3005;DHT22;1512;51.486;6.610;2022-12-16T17:49:32;-0.50;99.90
3005;DHT22;1512;51.486;6.610;2022-12-16T17:53:58;-0.50;99.90
3005;DHT22;1512;51.486;6.610;2022-12-16T17:58:46;-0.50;99.90
3005;DHT22;1512;51.486;6.610;2022-12-16T18:03:12;-0.50;99.90
3005;DHT22;1512;51.486;6.610;2022-12-16T18:08:00;-0.50;99.90
3005;DHT22;1512;51.486;6.610;2022-12-16T18:12:46;-0.50;99.90
3005;DHT22;1512;51.486;6.610;2022-12-16T18:17:13;-0.50;99.90
3005;DHT22;1512;51.486;6.610;2022-12-16T18:21:40;-0.50;99.90
3005;DHT22;1512;51.486;6.610;2022-12-16T18:26:12;-0.50;99.90
3005;DHT22;1512;51.486;6.610;2022-12-16T18:30:38;-0.50;99.90
3005;DHT22;1512;51.486;6.610;2022-12-16T18:35:05;-0.50;99.90
3005;DHT22;1512;51.486;6.610;2022-12-16T18:39:32;-0.50;99.90
3005;DHT22;1512;51.486;6.610;2022-12-16T18:44:00;-0.50;99.90
3005;DHT22;1512;51.486;6.610;2022-12-16T18:48:26;-0.50;99.90
3005;DHT22;1512;51.486;6.610;2022-12-16T18:52:53;-0.50;99.90
3005;DHT22;1512;51.486;6.610;2022-12-16T18:57:19;-0.50;99.90
3005;DHT22;1512;51.486;6.610;2022-12-16T19:01:46;-0.40;99.90
3005;DHT22;1512;51.486;6.610;2022-12-16T19:06:13;-0.40;99.90
3005;DHT22;1512;51.486;6.610;2022-12-16T19:10:39;-0.40;99.90
3005;DHT22;1512;51.486;6.610;2022-12-16T19:15:06;-0.40;99.90
3005;DHT22;1512;51.486;6.610;2022-12-16T19:19:33;-0.40;99.90
3005;DHT22;1512;51.486;6.610;2022-12-16T19:23:59;-0.40;99.90
3005;DHT22;1512;51.486;6.610;2022-12-16T19:28:26;-0.40;99.90
3005;DHT22;1512;51.486;6.610;2022-12-16T19:32:52;-0.40;99.90
3005;DHT22;1512;51.486;6.610;2022-12-16T19:37:19;-0.40;99.90
3005;DHT22;1512;51.486;6.610;2022-12-16T19:41:45;-0.40;99.90
3005;DHT22;1512;51.486;6.610;2022-12-16T19:46:12;-0.40;99.90
3005;DHT22;1512;51.486;6.610;2022-12-16T19:50:39;-0.50;99.90
3005;DHT22;1512;51.486;6.610;2022-12-16T19:55:08;-0.50;99.90
3005;DHT22;1512;51.486;6.610;2022-12-16T19:59:35;-0.50;99.90
3005;DHT22;1512;51.486;6.610;2022-12-16T20:04:21;-0.50;99.90
3005;DHT22;1512;51.486;6.610;2022-12-16T20:09:08;-0.50;99.90
3005;DHT22;1512;51.486;6.610;2022-12-16T20:13:35;-0.50;99.90
3005;DHT22;1512;51.486;6.610;2022-12-16T20:18:22;-0.50;99.90
3005;DHT22;1512;51.486;6.610;2022-12-16T20:23:07;-0.50;99.90
3005;DHT22;1512;51.486;6.610;2022-12-16T20:27:34;-0.50;99.90
3005;DHT22;1512;51.486;6.610;2022-12-16T20:32:02;-0.50;99.90
3005;DHT22;1512;51.486;6.610;2022-12-16T20:36:29;-0.50;99.90
3005;DHT22;1512;51.486;6.610;2022-12-16T20:40:59;-0.50;99.90
3005;DHT22;1512;51.486;6.610;2022-12-16T20:45:25;-0.50;99.90
3005;DHT22;1512;51.486;6.610;2022-12-16T20:49:51;-0.40;99.90
3005;DHT22;1512;51.486;6.610;2022-12-16T20:54:18;-0.50;99.90
3005;DHT22;1512;51.486;6.610;2022-12-16T20:58:48;-0.50;99.90
3005;DHT22;1512;51.486;6.610;2022-12-16T21:03:15;-0.40;99.90
3005;DHT22;1512;51.486;6.610;2022-12-16T21:07:42;-0.40;99.90
3005;DHT22;1512;51.486;6.610;2022-12-16T21:12:09;-0.60;99.90
3005;DHT22;1512;51.486;6.610;2022-12-16T21:16:35;-0.70;99.90
3005;DHT22;1512;51.486;6.610;2022-12-16T21:21:02;-0.60;99.90
3005;DHT22;1512;51.486;6.610;2022-12-16T21:25:30;-0.60;99.90
3005;DHT22;1512;51.486;6.610;2022-12-16T21:29:56;-0.60;99.90
3005;DHT22;1512;51.486;6.610;2022-12-16T21:34:23;-0.60;99.90
3005;DHT22;1512;51.486;6.610;2022-12-16T21:38:49;-0.60;99.90
3005;DHT22;1512;51.486;6.610;2022-12-16T21:43:16;-0.60;99.90
3005;DHT22;1512;51.486;6.610;2022-12-16T21:47:43;-0.60;99.90
3005;DHT22;1512;51.486;6.610;2022-12-16T21:52:29;-0.60;99.90
3005;DHT22;1512;51.486;6.610;2022-12-16T22:01:17;-0.60;99.90
3005;DHT22;1512;51.486;6.610;2022-12-16T22:05:44;-0.60;99.90
3005;DHT22;1512;51.486;6.610;2022-12-16T22:10:10;-0.60;99.90
3005;DHT22;1512;51.486;6.610;2022-12-16T22:14:37;-0.50;99.90
3005;DHT22;1512;51.486;6.610;2022-12-16T22:19:04;-0.50;99.90
3005;DHT22;1512;51.486;6.610;2022-12-16T22:23:28;-0.60;99.90
3005;DHT22;1512;51.486;6.610;2022-12-16T22:27:55;-0.60;99.90
3005;DHT22;1512;51.486;6.610;2022-12-16T22:32:21;-0.60;99.90
3005;DHT22;1512;51.486;6.610;2022-12-16T22:36:47;-0.60;99.90
3005;DHT22;1512;51.486;6.610;2022-12-16T22:41:19;-0.60;99.90
3005;DHT22;1512;51.486;6.610;2022-12-16T22:46:05;-0.60;99.90
3005;DHT22;1512;51.486;6.610;2022-12-16T22:50:32;-0.60;99.90
3005;DHT22;1512;51.486;6.610;2022-12-16T22:55:00;-0.60;99.90
3005;DHT22;1512;51.486;6.610;2022-12-16T22:59:47;-0.60;99.90
3005;DHT22;1512;51.486;6.610;2022-12-16T23:04:13;-0.60;99.90
3005;DHT22;1512;51.486;6.610;2022-12-16T23:08:59;-0.60;99.90
3005;DHT22;1512;51.486;6.610;2022-12-16T23:13:27;-0.60;99.90
3005;DHT22;1512;51.486;6.610;2022-12-16T23:17:53;-0.60;99.90
3005;DHT22;1512;51.486;6.610;2022-12-16T23:22:20;-0.60;99.90
3005;DHT22;1512;51.486;6.610;2022-12-16T23:26:47;-0.50;99.90
3005;DHT22;1512;51.486;6.610;2022-12-16T23:35:53;-0.50;99.90
3005;DHT22;1512;51.486;6.610;2022-12-16T23:40:20;-0.50;99.90
3005;DHT22;1512;51.486;6.610;2022-12-16T23:44:47;-0.50;99.90
3005;DHT22;1512;51.486;6.610;2022-12-16T23:49:32;-0.50;99.90
3005;DHT22;1512;51.486;6.610;2022-12-16T23:54:01;-0.60;99.90
3005;DHT22;1512;51.486;6.610;2022-12-16T23:58:27;-0.60;99.90
